sensor_id;sensor_type;location;lat;lon;timestamp;temperature;humidity
64843;DHT22;51310;52.198;5.422;2023-04-26T00:02:12;3.00;99.90
64843;DHT22;51310;52.198;5.422;2023-04-26T00:04:38;3.00;99.90
64843;DHT22;51310;52.198;5.422;2023-04-26T00:07:04;2.90;99.90
64843;DHT22;51310;52.198;5.422;2023-04-26T00:09:32;2.80;99.90
64843;DHT22;51310;52.198;5.422;2023-04-26T00:11:58;2.80;99.90
64843;DHT22;51310;52.198;5.422;2023-04-26T00:14:24;2.70;99.90
64843;DHT22;51310;52.198;5.422;2023-04-26T00:16:50;2.70;99.90
64843;DHT22;51310;52.198;5.422;2023-04-26T00:19:16;2.70;99.90
64843;DHT22;51310;52.198;5.422;2023-04-26T00:21:42;2.60;99.90
64843;DHT22;51310;52.198;5.422;2023-04-26T00:24:08;2.60;99.90
64843;DHT22;51310;52.198;5.422;2023-04-26T00:26:34;2.50;99.90
64843;DHT22;51310;52.198;5.422;2023-04-26T00:29:01;2.50;99.90
64843;DHT22;51310;52.198;5.422;2023-04-26T00:31:28;2.40;99.90
64843;DHT22;51310;52.198;5.422;2023-04-26T00:33:54;2.40;99.90
64843;DHT22;51310;52.198;5.422;2023-04-26T00:36:20;2.30;99.90
64843;DHT22;51310;52.198;5.422;2023-04-26T00:38:45;2.20;99.90
64843;DHT22;51310;52.198;5.422;2023-04-26T00:41:11;2.10;99.90
64843;DHT22;51310;52.198;5.422;2023-04-26T00:43:37;2.10;99.90
64843;DHT22;51310;52.198;5.422;2023-04-26T00:46:04;2.00;99.90
64843;DHT22;51310;52.198;5.422;2023-04-26T00:48:31;1.90;99.90
64843;DHT22;51310;52.198;5.422;2023-04-26T00:50:58;1.80;99.90
64843;DHT22;51310;52.198;5.422;2023-04-26T00:53:25;1.80;99.90
64843;DHT22;51310;52.198;5.422;2023-04-26T00:55:51;1.70;99.90
64843;DHT22;51310;52.198;5.422;2023-04-26T00:58:18;1.70;99.90
64843;DHT22;51310;52.198;5.422;2023-04-26T01:00:47;1.60;99.90
64843;DHT22;51310;52.198;5.422;2023-04-26T01:03:14;1.50;99.90
64843;DHT22;51310;52.198;5.422;2023-04-26T01:05:41;1.50;99.90
64843;DHT22;51310;52.198;5.422;2023-04-26T01:08:07;1.50;99.90
64843;DHT22;51310;52.198;5.422;2023-04-26T01:10:33;1.40;99.90
64843;DHT22;51310;52.198;5.422;2023-04-26T01:13:01;1.40;99.90
64843;DHT22;51310;52.198;5.422;2023-04-26T01:15:30;1.40;99.90
64843;DHT22;51310;52.198;5.422;2023-04-26T01:17:58;1.40;99.90
64843;DHT22;51310;52.198;5.422;2023-04-26T01:20:24;1.40;99.90
64843;DHT22;51310;52.198;5.422;2023-04-26T01:22:53;1.40;99.90
64843;DHT22;51310;52.198;5.422;2023-04-26T01:25:18;1.40;99.90
64843;DHT22;51310;52.198;5.422;2023-04-26T01:27:45;1.40;99.90
64843;DHT22;51310;52.198;5.422;2023-04-26T01:30:11;1.30;99.90
64843;DHT22;51310;52.198;5.422;2023-04-26T01:32:37;1.40;99.90
64843;DHT22;51310;52.198;5.422;2023-04-26T01:35:03;1.40;99.90
64843;DHT22;51310;52.198;5.422;2023-04-26T01:37:30;1.40;99.90
64843;DHT22;51310;52.198;5.422;2023-04-26T01:39:55;1.40;99.90
64843;DHT22;51310;52.198;5.422;2023-04-26T01:42:21;1.40;99.90
64843;DHT22;51310;52.198;5.422;2023-04-26T01:44:47;1.30;99.90
64843;DHT22;51310;52.198;5.422;2023-04-26T01:47:12;1.20;99.90
64843;DHT22;51310;52.198;5.422;2023-04-26T01:49:38;1.20;99.90
64843;DHT22;51310;52.198;5.422;2023-04-26T01:52:04;1.20;99.90
64843;DHT22;51310;52.198;5.422;2023-04-26T01:54:29;1.20;99.90
64843;DHT22;51310;52.198;5.422;2023-04-26T01:56:55;1.20;99.90
64843;DHT22;51310;52.198;5.422;2023-04-26T01:59:21;1.10;99.90
64843;DHT22;51310;52.198;5.422;2023-04-26T02:01:47;1.10;99.90
64843;DHT22;51310;52.198;5.422;2023-04-26T02:04:13;1.10;99.90
64843;DHT22;51310;52.198;5.422;2023-04-26T02:06:38;1.10;99.90
64843;DHT22;51310;52.198;5.422;2023-04-26T02:09:06;1.00;99.90
64843;DHT22;51310;52.198;5.422;2023-04-26T02:11:34;1.00;99.90
64843;DHT22;51310;52.198;5.422;2023-04-26T02:13:59;1.00;99.90
64843;DHT22;51310;52.198;5.422;2023-04-26T02:16:26;1.00;99.90
64843;DHT22;51310;52.198;5.422;2023-04-26T02:18:52;1.00;99.90
64843;DHT22;51310;52.198;5.422;2023-04-26T02:21:19;1.00;99.90
64843;DHT22;51310;52.198;5.422;2023-04-26T02:23:45;1.00;99.90
64843;DHT22;51310;52.198;5.422;2023-04-26T02:26:12;1.10;99.90
64843;DHT22;51310;52.198;5.422;2023-04-26T02:28:38;1.00;99.90
64843;DHT22;51310;52.198;5.422;2023-04-26T02:31:04;1.00;99.90
64843;DHT22;51310;52.198;5.422;2023-04-26T02:33:30;1.00;99.90
64843;DHT22;51310;52.198;5.422;2023-04-26T02:35:56;1.00;99.90
64843;DHT22;51310;52.198;5.422;2023-04-26T02:38:22;1.00;99.90
64843;DHT22;51310;52.198;5.422;2023-04-26T02:41:00;1.00;99.90
64843;DHT22;51310;52.198;5.422;2023-04-26T02:43:26;1.00;99.90
64843;DHT22;51310;52.198;5.422;2023-04-26T02:45:52;1.00;99.90
64843;DHT22;51310;52.198;5.422;2023-04-26T02:48:18;1.00;99.90
64843;DHT22;51310;52.198;5.422;2023-04-26T02:50:44;0.90;99.90
64843;DHT22;51310;52.198;5.422;2023-04-26T02:53:11;0.90;99.90
64843;DHT22;51310;52.198;5.422;2023-04-26T02:55:37;0.80;99.90
64843;DHT22;51310;52.198;5.422;2023-04-26T02:58:03;0.80;99.90
64843;DHT22;51310;52.198;5.422;2023-04-26T03:00:29;0.80;99.90
64843;DHT22;51310;52.198;5.422;2023-04-26T03:02:55;0.80;99.90
64843;DHT22;51310;52.198;5.422;2023-04-26T03:05:21;0.70;99.90
64843;DHT22;51310;52.198;5.422;2023-04-26T03:07:47;0.70;99.90
64843;DHT22;51310;52.198;5.422;2023-04-26T03:10:13;0.60;99.90
64843;DHT22;51310;52.198;5.422;2023-04-26T03:12:38;0.60;99.90
64843;DHT22;51310;52.198;5.422;2023-04-26T03:15:05;0.60;99.90
64843;DHT22;51310;52.198;5.422;2023-04-26T03:17:31;0.60;99.90
64843;DHT22;51310;52.198;5.422;2023-04-26T03:19:56;0.60;99.90
64843;DHT22;51310;52.198;5.422;2023-04-26T03:22:22;0.60;99.90
64843;DHT22;51310;52.198;5.422;2023-04-26T03:24:48;0.60;99.90
64843;DHT22;51310;52.198;5.422;2023-04-26T03:27:13;0.60;99.90
64843;DHT22;51310;52.198;5.422;2023-04-26T03:29:39;0.60;99.90
64843;DHT22;51310;52.198;5.422;2023-04-26T03:32:05;0.60;99.90
64843;DHT22;51310;52.198;5.422;2023-04-26T03:34:31;0.50;99.90
64843;DHT22;51310;52.198;5.422;2023-04-26T03:36:57;0.50;99.90
64843;DHT22;51310;52.198;5.422;2023-04-26T03:39:23;0.50;99.90
64843;DHT22;51310;52.198;5.422;2023-04-26T03:41:48;0.50;99.90
64843;DHT22;51310;52.198;5.422;2023-04-26T03:44:14;0.50;99.90
64843;DHT22;51310;52.198;5.422;2023-04-26T03:46:40;0.50;99.90
64843;DHT22;51310;52.198;5.422;2023-04-26T03:49:06;0.50;99.90
64843;DHT22;51310;52.198;5.422;2023-04-26T03:51:31;0.50;99.90
64843;DHT22;51310;52.198;5.422;2023-04-26T03:53:58;0.50;99.90
64843;DHT22;51310;52.198;5.422;2023-04-26T03:56:24;0.50;99.90
64843;DHT22;51310;52.198;5.422;2023-04-26T03:58:50;0.50;99.90
64843;DHT22;51310;52.198;5.422;2023-04-26T04:01:15;0.50;99.90
64843;DHT22;51310;52.198;5.422;2023-04-26T04:03:41;0.50;99.90
64843;DHT22;51310;52.198;5.422;2023-04-26T04:06:07;0.50;99.90
64843;DHT22;51310;52.198;5.422;2023-04-26T04:08:32;0.50;99.90
64843;DHT22;51310;52.198;5.422;2023-04-26T04:10:58;0.50;99.90
64843;DHT22;51310;52.198;5.422;2023-04-26T04:13:25;0.50;99.90
64843;DHT22;51310;52.198;5.422;2023-04-26T04:15:51;0.60;99.90
64843;DHT22;51310;52.198;5.422;2023-04-26T04:18:17;0.60;99.90
64843;DHT22;51310;52.198;5.422;2023-04-26T04:20:43;0.60;99.90
64843;DHT22;51310;52.198;5.422;2023-04-26T04:23:09;0.80;99.90
64843;DHT22;51310;52.198;5.422;2023-04-26T04:25:35;0.80;99.90
64843;DHT22;51310;52.198;5.422;2023-04-26T04:28:01;1.00;99.90
64843;DHT22;51310;52.198;5.422;2023-04-26T04:30:28;1.00;99.90
64843;DHT22;51310;52.198;5.422;2023-04-26T04:32:55;1.00;99.90
64843;DHT22;51310;52.198;5.422;2023-04-26T04:35:23;1.10;99.90
64843;DHT22;51310;52.198;5.422;2023-04-26T04:37:56;1.10;99.90
64843;DHT22;51310;52.198;5.422;2023-04-26T04:40:22;1.20;99.90
64843;DHT22;51310;52.198;5.422;2023-04-26T04:42:49;1.30;99.90
64843;DHT22;51310;52.198;5.422;2023-04-26T04:45:15;1.40;99.90
64843;DHT22;51310;52.198;5.422;2023-04-26T04:47:42;1.40;99.90
64843;DHT22;51310;52.198;5.422;2023-04-26T04:50:09;1.40;99.90
64843;DHT22;51310;52.198;5.422;2023-04-26T04:52:35;1.40;99.90
64843;DHT22;51310;52.198;5.422;2023-04-26T04:55:02;1.40;99.90
64843;DHT22;51310;52.198;5.422;2023-04-26T04:57:28;1.40;99.90
64843;DHT22;51310;52.198;5.422;2023-04-26T04:59:55;1.40;99.90
64843;DHT22;51310;52.198;5.422;2023-04-26T05:02:21;1.40;99.90
64843;DHT22;51310;52.198;5.422;2023-04-26T05:04:47;1.50;99.90
64843;DHT22;51310;52.198;5.422;2023-04-26T05:07:12;1.70;99.90
64843;DHT22;51310;52.198;5.422;2023-04-26T05:09:43;1.90;99.90
64843;DHT22;51310;52.198;5.422;2023-04-26T05:12:09;1.90;99.90
64843;DHT22;51310;52.198;5.422;2023-04-26T05:14:34;1.90;99.90
64843;DHT22;51310;52.198;5.422;2023-04-26T05:17:00;1.90;99.90
64843;DHT22;51310;52.198;5.422;2023-04-26T05:19:26;1.90;99.90
64843;DHT22;51310;52.198;5.422;2023-04-26T05:21:52;1.90;99.90
64843;DHT22;51310;52.198;5.422;2023-04-26T05:24:17;2.00;99.90
64843;DHT22;51310;52.198;5.422;2023-04-26T05:26:43;2.20;99.90
64843;DHT22;51310;52.198;5.422;2023-04-26T05:29:09;2.50;99.90
64843;DHT22;51310;52.198;5.422;2023-04-26T05:31:35;2.80;99.90
64843;DHT22;51310;52.198;5.422;2023-04-26T05:34:01;3.10;99.90
64843;DHT22;51310;52.198;5.422;2023-04-26T05:36:26;3.30;99.90
64843;DHT22;51310;52.198;5.422;2023-04-26T05:38:52;3.60;99.90
64843;DHT22;51310;52.198;5.422;2023-04-26T05:41:18;3.90;99.90
64843;DHT22;51310;52.198;5.422;2023-04-26T05:43:44;4.10;99.90
64843;DHT22;51310;52.198;5.422;2023-04-26T05:46:11;4.30;99.90
64843;DHT22;51310;52.198;5.422;2023-04-26T05:48:37;4.50;99.90
64843;DHT22;51310;52.198;5.422;2023-04-26T05:51:03;4.50;99.90
64843;DHT22;51310;52.198;5.422;2023-04-26T05:53:29;4.50;99.90
64843;DHT22;51310;52.198;5.422;2023-04-26T05:55:54;4.50;99.90
64843;DHT22;51310;52.198;5.422;2023-04-26T05:58:20;4.50;99.90
64843;DHT22;51310;52.198;5.422;2023-04-26T06:00:46;4.60;99.90
64843;DHT22;51310;52.198;5.422;2023-04-26T06:03:12;4.70;99.90
64843;DHT22;51310;52.198;5.422;2023-04-26T06:05:38;4.80;99.90
64843;DHT22;51310;52.198;5.422;2023-04-26T06:08:04;5.00;99.90
64843;DHT22;51310;52.198;5.422;2023-04-26T06:10:30;5.10;99.90
64843;DHT22;51310;52.198;5.422;2023-04-26T06:12:55;5.30;99.90
64843;DHT22;51310;52.198;5.422;2023-04-26T06:15:21;5.60;99.90
64843;DHT22;51310;52.198;5.422;2023-04-26T06:17:47;5.70;99.90
64843;DHT22;51310;52.198;5.422;2023-04-26T06:20:12;5.80;99.90
64843;DHT22;51310;52.198;5.422;2023-04-26T06:22:38;5.90;99.90
64843;DHT22;51310;52.198;5.422;2023-04-26T06:25:04;5.90;99.90
64843;DHT22;51310;52.198;5.422;2023-04-26T06:27:31;5.90;99.90
64843;DHT22;51310;52.198;5.422;2023-04-26T06:29:57;5.80;99.90
64843;DHT22;51310;52.198;5.422;2023-04-26T06:32:22;5.70;99.90
64843;DHT22;51310;52.198;5.422;2023-04-26T06:34:48;5.50;99.90
64843;DHT22;51310;52.198;5.422;2023-04-26T06:37:14;5.50;99.90
64843;DHT22;51310;52.198;5.422;2023-04-26T06:39:40;5.50;99.90
64843;DHT22;51310;52.198;5.422;2023-04-26T06:42:06;5.50;99.90
64843;DHT22;51310;52.198;5.422;2023-04-26T06:44:32;5.60;99.90
64843;DHT22;51310;52.198;5.422;2023-04-26T06:46:58;5.70;99.90
64843;DHT22;51310;52.198;5.422;2023-04-26T06:49:24;5.70;99.90
64843;DHT22;51310;52.198;5.422;2023-04-26T06:51:51;5.90;99.90
64843;DHT22;51310;52.198;5.422;2023-04-26T06:54:17;6.00;99.90
64843;DHT22;51310;52.198;5.422;2023-04-26T06:56:43;6.20;99.90
64843;DHT22;51310;52.198;5.422;2023-04-26T06:59:09;6.30;99.90
64843;DHT22;51310;52.198;5.422;2023-04-26T07:01:35;6.30;99.90
64843;DHT22;51310;52.198;5.422;2023-04-26T07:04:05;6.40;99.90
64843;DHT22;51310;52.198;5.422;2023-04-26T07:06:37;6.50;99.90
64843;DHT22;51310;52.198;5.422;2023-04-26T07:09:06;6.60;99.90
64843;DHT22;51310;52.198;5.422;2023-04-26T07:11:32;6.80;99.90
64843;DHT22;51310;52.198;5.422;2023-04-26T07:13:57;6.80;99.90
64843;DHT22;51310;52.198;5.422;2023-04-26T07:16:23;6.70;99.90
64843;DHT22;51310;52.198;5.422;2023-04-26T07:18:49;6.80;99.90
64843;DHT22;51310;52.198;5.422;2023-04-26T07:21:16;6.90;99.90
64843;DHT22;51310;52.198;5.422;2023-04-26T07:23:41;7.00;99.90
64843;DHT22;51310;52.198;5.422;2023-04-26T07:26:09;7.00;99.90
64843;DHT22;51310;52.198;5.422;2023-04-26T07:28:36;7.10;99.90
64843;DHT22;51310;52.198;5.422;2023-04-26T07:31:01;7.10;99.90
64843;DHT22;51310;52.198;5.422;2023-04-26T07:33:27;7.20;99.90
64843;DHT22;51310;52.198;5.422;2023-04-26T07:35:54;7.20;99.90
64843;DHT22;51310;52.198;5.422;2023-04-26T07:38:21;7.20;99.90
64843;DHT22;51310;52.198;5.422;2023-04-26T07:40:48;7.20;99.90
64843;DHT22;51310;52.198;5.422;2023-04-26T07:43:14;7.30;99.90
64843;DHT22;51310;52.198;5.422;2023-04-26T07:45:40;7.50;99.90
64843;DHT22;51310;52.198;5.422;2023-04-26T07:48:06;7.50;99.90
64843;DHT22;51310;52.198;5.422;2023-04-26T07:50:32;7.50;99.90
64843;DHT22;51310;52.198;5.422;2023-04-26T07:52:58;7.60;99.90
64843;DHT22;51310;52.198;5.422;2023-04-26T07:55:24;7.70;99.90
64843;DHT22;51310;52.198;5.422;2023-04-26T07:57:50;7.80;99.90
64843;DHT22;51310;52.198;5.422;2023-04-26T08:00:17;7.80;99.90
64843;DHT22;51310;52.198;5.422;2023-04-26T08:02:43;7.80;99.90
64843;DHT22;51310;52.198;5.422;2023-04-26T08:05:13;7.90;99.90
64843;DHT22;51310;52.198;5.422;2023-04-26T08:07:40;8.10;99.90
64843;DHT22;51310;52.198;5.422;2023-04-26T08:10:06;8.10;99.90
64843;DHT22;51310;52.198;5.422;2023-04-26T08:12:33;8.10;99.90
64843;DHT22;51310;52.198;5.422;2023-04-26T08:15:00;8.20;99.90
64843;DHT22;51310;52.198;5.422;2023-04-26T08:17:26;8.20;99.90
64843;DHT22;51310;52.198;5.422;2023-04-26T08:19:52;8.20;99.90
64843;DHT22;51310;52.198;5.422;2023-04-26T08:22:18;8.20;62.40
64843;DHT22;51310;52.198;5.422;2023-04-26T08:24:49;8.10;62.20
64843;DHT22;51310;52.198;5.422;2023-04-26T08:27:16;8.10;62.50
64843;DHT22;51310;52.198;5.422;2023-04-26T08:29:43;8.10;62.70
64843;DHT22;51310;52.198;5.422;2023-04-26T08:32:10;8.10;60.90
64843;DHT22;51310;52.198;5.422;2023-04-26T08:34:36;7.80;61.50
64843;DHT22;51310;52.198;5.422;2023-04-26T08:37:01;7.60;62.60
64843;DHT22;51310;52.198;5.422;2023-04-26T08:39:27;7.50;63.40
64843;DHT22;51310;52.198;5.422;2023-04-26T08:41:53;7.40;63.90
64843;DHT22;51310;52.198;5.422;2023-04-26T08:44:23;7.30;64.00
64843;DHT22;51310;52.198;5.422;2023-04-26T08:49:44;7.20;65.70
64843;DHT22;51310;52.198;5.422;2023-04-26T08:52:14;7.10;68.10
64843;DHT22;51310;52.198;5.422;2023-04-26T08:54:41;7.00;71.50
64843;DHT22;51310;52.198;5.422;2023-04-26T08:57:07;7.10;72.80
64843;DHT22;51310;52.198;5.422;2023-04-26T08:59:38;7.00;73.30
64843;DHT22;51310;52.198;5.422;2023-04-26T09:02:06;7.10;74.40
64843;DHT22;51310;52.198;5.422;2023-04-26T09:04:32;7.10;72.30
64843;DHT22;51310;52.198;5.422;2023-04-26T09:07:02;7.00;71.80
64843;DHT22;51310;52.198;5.422;2023-04-26T09:09:35;7.10;70.70
64843;DHT22;51310;52.198;5.422;2023-04-26T09:12:07;7.20;70.20
64843;DHT22;51310;52.198;5.422;2023-04-26T09:14:33;7.20;69.10
64843;DHT22;51310;52.198;5.422;2023-04-26T09:16:59;7.40;69.00
64843;DHT22;51310;52.198;5.422;2023-04-26T09:19:39;7.50;68.90
64843;DHT22;51310;52.198;5.422;2023-04-26T09:22:07;7.50;69.60
64843;DHT22;51310;52.198;5.422;2023-04-26T09:24:51;7.80;69.10
64843;DHT22;51310;52.198;5.422;2023-04-26T09:27:18;8.00;68.50
64843;DHT22;51310;52.198;5.422;2023-04-26T09:29:58;8.20;66.10
64843;DHT22;51310;52.198;5.422;2023-04-26T09:32:56;8.40;65.00
64843;DHT22;51310;52.198;5.422;2023-04-26T09:35:39;8.60;63.20
64843;DHT22;51310;52.198;5.422;2023-04-26T09:38:14;8.70;62.70
64843;DHT22;51310;52.198;5.422;2023-04-26T09:40:45;8.90;61.90
64843;DHT22;51310;52.198;5.422;2023-04-26T09:43:14;9.00;61.80
64843;DHT22;51310;52.198;5.422;2023-04-26T09:48:25;9.20;58.20
64843;DHT22;51310;52.198;5.422;2023-04-26T09:50:58;9.20;57.40
64843;DHT22;51310;52.198;5.422;2023-04-26T09:53:41;9.20;56.70
64843;DHT22;51310;52.198;5.422;2023-04-26T09:56:12;9.20;58.80
64843;DHT22;51310;52.198;5.422;2023-04-26T09:58:59;9.30;58.30
64843;DHT22;51310;52.198;5.422;2023-04-26T10:01:30;9.40;57.90
64843;DHT22;51310;52.198;5.422;2023-04-26T10:04:00;9.40;56.90
64843;DHT22;51310;52.198;5.422;2023-04-26T10:06:26;9.40;54.50
64843;DHT22;51310;52.198;5.422;2023-04-26T10:08:53;9.20;55.30
64843;DHT22;51310;52.198;5.422;2023-04-26T10:11:20;8.90;56.20
64843;DHT22;51310;52.198;5.422;2023-04-26T10:13:49;8.80;58.20
64843;DHT22;51310;52.198;5.422;2023-04-26T10:16:15;8.70;56.20
64843;DHT22;51310;52.198;5.422;2023-04-26T10:18:41;8.70;56.60
64843;DHT22;51310;52.198;5.422;2023-04-26T10:21:21;8.70;56.70
64843;DHT22;51310;52.198;5.422;2023-04-26T10:24:00;8.70;55.40
64843;DHT22;51310;52.198;5.422;2023-04-26T10:26:45;8.60;54.40
64843;DHT22;51310;52.198;5.422;2023-04-26T10:29:17;8.60;55.50
64843;DHT22;51310;52.198;5.422;2023-04-26T10:34:30;8.80;55.20
64843;DHT22;51310;52.198;5.422;2023-04-26T10:37:10;8.90;54.50
64843;DHT22;51310;52.198;5.422;2023-04-26T10:39:38;8.90;55.40
64843;DHT22;51310;52.198;5.422;2023-04-26T10:42:24;8.90;55.00
64843;DHT22;51310;52.198;5.422;2023-04-26T10:44:53;9.00;54.10
64843;DHT22;51310;52.198;5.422;2023-04-26T10:47:29;9.00;54.40
64843;DHT22;51310;52.198;5.422;2023-04-26T10:50:15;9.00;54.60
64843;DHT22;51310;52.198;5.422;2023-04-26T10:55:54;8.90;52.30
64843;DHT22;51310;52.198;5.422;2023-04-26T10:58:33;8.80;53.20
64843;DHT22;51310;52.198;5.422;2023-04-26T11:01:15;8.70;53.90
64843;DHT22;51310;52.198;5.422;2023-04-26T11:04:00;8.70;53.30
64843;DHT22;51310;52.198;5.422;2023-04-26T11:06:57;8.70;54.30
64843;DHT22;51310;52.198;5.422;2023-04-26T11:09:38;8.70;54.40
64843;DHT22;51310;52.198;5.422;2023-04-26T11:12:12;8.60;54.80
64843;DHT22;51310;52.198;5.422;2023-04-26T11:14:44;8.50;56.00
64843;DHT22;51310;52.198;5.422;2023-04-26T11:17:11;8.40;56.20
64843;DHT22;51310;52.198;5.422;2023-04-26T11:19:37;8.40;56.50
64843;DHT22;51310;52.198;5.422;2023-04-26T11:22:06;8.40;57.10
64843;DHT22;51310;52.198;5.422;2023-04-26T11:24:33;8.50;57.20
64843;DHT22;51310;52.198;5.422;2023-04-26T11:27:09;8.60;57.30
64843;DHT22;51310;52.198;5.422;2023-04-26T11:29:36;8.70;57.00
64843;DHT22;51310;52.198;5.422;2023-04-26T11:32:02;8.80;57.30
64843;DHT22;51310;52.198;5.422;2023-04-26T11:34:32;8.90;56.90
64843;DHT22;51310;52.198;5.422;2023-04-26T11:37:03;8.90;56.10
64843;DHT22;51310;52.198;5.422;2023-04-26T11:39:34;9.00;55.10
64843;DHT22;51310;52.198;5.422;2023-04-26T11:42:08;9.00;55.70
64843;DHT22;51310;52.198;5.422;2023-04-26T11:44:36;9.20;54.60
64843;DHT22;51310;52.198;5.422;2023-04-26T11:47:06;9.30;50.80
64843;DHT22;51310;52.198;5.422;2023-04-26T11:49:35;9.40;51.10
64843;DHT22;51310;52.198;5.422;2023-04-26T11:52:03;9.50;51.10
64843;DHT22;51310;52.198;5.422;2023-04-26T11:54:31;9.60;50.40
64843;DHT22;51310;52.198;5.422;2023-04-26T11:56:58;9.80;50.10
64843;DHT22;51310;52.198;5.422;2023-04-26T11:59:25;10.00;48.30
64843;DHT22;51310;52.198;5.422;2023-04-26T12:01:55;10.00;48.20
64843;DHT22;51310;52.198;5.422;2023-04-26T12:04:29;10.00;49.10
64843;DHT22;51310;52.198;5.422;2023-04-26T12:06:56;10.00;49.20
64843;DHT22;51310;52.198;5.422;2023-04-26T12:09:25;10.00;49.20
64843;DHT22;51310;52.198;5.422;2023-04-26T12:11:58;10.00;48.90
64843;DHT22;51310;52.198;5.422;2023-04-26T12:14:46;9.80;48.00
64843;DHT22;51310;52.198;5.422;2023-04-26T12:17:14;9.60;49.00
64843;DHT22;51310;52.198;5.422;2023-04-26T12:19:40;9.50;50.00
64843;DHT22;51310;52.198;5.422;2023-04-26T12:22:07;9.50;50.80
64843;DHT22;51310;52.198;5.422;2023-04-26T12:24:33;9.60;50.70
64843;DHT22;51310;52.198;5.422;2023-04-26T12:27:05;9.70;49.60
64843;DHT22;51310;52.198;5.422;2023-04-26T12:29:31;9.60;50.00
64843;DHT22;51310;52.198;5.422;2023-04-26T12:31:58;9.50;49.80
64843;DHT22;51310;52.198;5.422;2023-04-26T12:34:24;9.40;50.70
64843;DHT22;51310;52.198;5.422;2023-04-26T12:36:50;9.40;51.20
64843;DHT22;51310;52.198;5.422;2023-04-26T12:39:16;9.50;52.30
64843;DHT22;51310;52.198;5.422;2023-04-26T12:41:42;9.70;52.20
64843;DHT22;51310;52.198;5.422;2023-04-26T12:44:10;9.90;51.30
64843;DHT22;51310;52.198;5.422;2023-04-26T12:46:36;10.00;50.70
64843;DHT22;51310;52.198;5.422;2023-04-26T12:49:02;10.00;50.60
64843;DHT22;51310;52.198;5.422;2023-04-26T12:51:28;9.90;50.90
64843;DHT22;51310;52.198;5.422;2023-04-26T12:53:56;9.80;50.40
64843;DHT22;51310;52.198;5.422;2023-04-26T12:56:22;9.70;50.20
64843;DHT22;51310;52.198;5.422;2023-04-26T12:58:49;9.60;50.80
64843;DHT22;51310;52.198;5.422;2023-04-26T13:01:15;9.40;52.10
64843;DHT22;51310;52.198;5.422;2023-04-26T13:03:41;9.20;53.30
64843;DHT22;51310;52.198;5.422;2023-04-26T13:06:07;9.00;54.10
64843;DHT22;51310;52.198;5.422;2023-04-26T13:08:33;8.90;54.50
64843;DHT22;51310;52.198;5.422;2023-04-26T13:10:59;8.80;55.20
64843;DHT22;51310;52.198;5.422;2023-04-26T13:13:25;8.60;55.60
64843;DHT22;51310;52.198;5.422;2023-04-26T13:15:51;8.60;55.90
64843;DHT22;51310;52.198;5.422;2023-04-26T13:18:17;8.50;55.20
64843;DHT22;51310;52.198;5.422;2023-04-26T13:20:43;8.40;55.70
64843;DHT22;51310;52.198;5.422;2023-04-26T13:23:10;8.30;55.70
64843;DHT22;51310;52.198;5.422;2023-04-26T13:25:36;8.20;56.10
64843;DHT22;51310;52.198;5.422;2023-04-26T13:28:05;8.20;56.40
64843;DHT22;51310;52.198;5.422;2023-04-26T13:30:30;8.20;56.80
64843;DHT22;51310;52.198;5.422;2023-04-26T13:32:56;8.30;57.30
64843;DHT22;51310;52.198;5.422;2023-04-26T13:35:22;8.30;56.80
64843;DHT22;51310;52.198;5.422;2023-04-26T13:37:48;8.40;55.80
64843;DHT22;51310;52.198;5.422;2023-04-26T13:40:13;8.40;55.40
64843;DHT22;51310;52.198;5.422;2023-04-26T13:42:41;8.30;55.40
64843;DHT22;51310;52.198;5.422;2023-04-26T13:45:07;8.40;55.90
64843;DHT22;51310;52.198;5.422;2023-04-26T13:47:35;8.50;56.20
64843;DHT22;51310;52.198;5.422;2023-04-26T13:50:01;8.60;55.90
64843;DHT22;51310;52.198;5.422;2023-04-26T13:52:27;8.60;56.30
64843;DHT22;51310;52.198;5.422;2023-04-26T13:54:53;8.80;56.10
64843;DHT22;51310;52.198;5.422;2023-04-26T13:57:19;9.00;56.00
64843;DHT22;51310;52.198;5.422;2023-04-26T13:59:46;9.00;54.10
64843;DHT22;51310;52.198;5.422;2023-04-26T14:02:12;9.10;53.00
64843;DHT22;51310;52.198;5.422;2023-04-26T14:04:38;9.20;52.40
64843;DHT22;51310;52.198;5.422;2023-04-26T14:07:05;9.20;52.80
64843;DHT22;51310;52.198;5.422;2023-04-26T14:09:31;9.40;51.90
64843;DHT22;51310;52.198;5.422;2023-04-26T14:11:57;9.50;50.90
64843;DHT22;51310;52.198;5.422;2023-04-26T14:14:23;9.70;51.10
64843;DHT22;51310;52.198;5.422;2023-04-26T14:16:48;9.80;50.50
64843;DHT22;51310;52.198;5.422;2023-04-26T14:19:16;9.90;49.30
64843;DHT22;51310;52.198;5.422;2023-04-26T14:21:42;10.00;49.80
64843;DHT22;51310;52.198;5.422;2023-04-26T14:24:08;10.00;50.50
64843;DHT22;51310;52.198;5.422;2023-04-26T14:26:35;10.10;50.00
64843;DHT22;51310;52.198;5.422;2023-04-26T14:29:01;10.00;48.80
64843;DHT22;51310;52.198;5.422;2023-04-26T14:31:28;10.00;48.50
64843;DHT22;51310;52.198;5.422;2023-04-26T14:33:54;10.00;49.40
64843;DHT22;51310;52.198;5.422;2023-04-26T14:36:20;10.00;49.00
64843;DHT22;51310;52.198;5.422;2023-04-26T14:38:46;10.00;49.10
64843;DHT22;51310;52.198;5.422;2023-04-26T14:41:16;10.10;48.20
64843;DHT22;51310;52.198;5.422;2023-04-26T14:43:43;10.00;47.90
64843;DHT22;51310;52.198;5.422;2023-04-26T14:46:13;9.80;47.70
64843;DHT22;51310;52.198;5.422;2023-04-26T14:48:39;9.70;47.70
64843;DHT22;51310;52.198;5.422;2023-04-26T14:51:05;9.70;48.10
64843;DHT22;51310;52.198;5.422;2023-04-26T14:53:30;9.60;47.40
64843;DHT22;51310;52.198;5.422;2023-04-26T14:55:57;9.60;48.20
64843;DHT22;51310;52.198;5.422;2023-04-26T14:58:24;9.60;49.00
64843;DHT22;51310;52.198;5.422;2023-04-26T15:00:50;9.60;49.70
64843;DHT22;51310;52.198;5.422;2023-04-26T15:03:16;9.70;49.60
64843;DHT22;51310;52.198;5.422;2023-04-26T15:05:42;9.80;48.70
64843;DHT22;51310;52.198;5.422;2023-04-26T15:08:08;9.90;48.90
64843;DHT22;51310;52.198;5.422;2023-04-26T15:10:34;9.90;49.80
64843;DHT22;51310;52.198;5.422;2023-04-26T15:13:00;9.80;51.10
64843;DHT22;51310;52.198;5.422;2023-04-26T15:15:26;9.70;50.90
64843;DHT22;51310;52.198;5.422;2023-04-26T15:17:52;9.70;51.20
64843;DHT22;51310;52.198;5.422;2023-04-26T15:20:17;9.80;51.60
64843;DHT22;51310;52.198;5.422;2023-04-26T15:22:43;9.70;52.10
64843;DHT22;51310;52.198;5.422;2023-04-26T15:25:09;9.60;52.50
64843;DHT22;51310;52.198;5.422;2023-04-26T15:27:36;9.70;51.90
64843;DHT22;51310;52.198;5.422;2023-04-26T15:30:03;9.70;51.70
64843;DHT22;51310;52.198;5.422;2023-04-26T15:32:29;9.70;51.80
64843;DHT22;51310;52.198;5.422;2023-04-26T15:34:55;9.70;51.90
64843;DHT22;51310;52.198;5.422;2023-04-26T15:37:21;9.80;52.00
64843;DHT22;51310;52.198;5.422;2023-04-26T15:39:47;9.90;51.80
64843;DHT22;51310;52.198;5.422;2023-04-26T15:42:13;10.00;50.80
64843;DHT22;51310;52.198;5.422;2023-04-26T15:44:38;10.10;49.70
64843;DHT22;51310;52.198;5.422;2023-04-26T15:47:04;10.20;48.20
64843;DHT22;51310;52.198;5.422;2023-04-26T15:49:30;10.00;48.80
64843;DHT22;51310;52.198;5.422;2023-04-26T15:51:56;9.80;48.70
64843;DHT22;51310;52.198;5.422;2023-04-26T15:54:22;9.70;48.70
64843;DHT22;51310;52.198;5.422;2023-04-26T15:56:48;9.60;50.40
64843;DHT22;51310;52.198;5.422;2023-04-26T15:59:13;9.50;51.30